sensor_id;sensor_type;location;lat;lon;timestamp;P1;durP1;ratioP1;P2;durP2;ratioP2
24261;SDS011;12385;51.412;5.540;2023-12-14T00:02:03;45.35;;;26.98;;
24261;SDS011;12385;51.412;5.540;2023-12-14T00:04:28;41.55;;;25.15;;
24261;SDS011;12385;51.412;5.540;2023-12-14T00:06:54;41.88;;;25.27;;
24261;SDS011;12385;51.412;5.540;2023-12-14T00:09:21;42.33;;;24.90;;
24261;SDS011;12385;51.412;5.540;2023-12-14T00:14:19;42.60;;;26.23;;
24261;SDS011;12385;51.412;5.540;2023-12-14T00:16:44;42.95;;;26.67;;
24261;SDS011;12385;51.412;5.540;2023-12-14T00:19:10;37.65;;;24.23;;
24261;SDS011;12385;51.412;5.540;2023-12-14T00:21:35;40.25;;;25.50;;
24261;SDS011;12385;51.412;5.540;2023-12-14T00:24:01;37.80;;;23.27;;
24261;SDS011;12385;51.412;5.540;2023-12-14T00:26:27;35.38;;;23.33;;
24261;SDS011;12385;51.412;5.540;2023-12-14T00:28:53;36.80;;;23.60;;
24261;SDS011;12385;51.412;5.540;2023-12-14T00:31:18;31.60;;;21.05;;
24261;SDS011;12385;51.412;5.540;2023-12-14T00:33:47;32.37;;;21.57;;
24261;SDS011;12385;51.412;5.540;2023-12-14T00:36:20;34.63;;;23.13;;
24261;SDS011;12385;51.412;5.540;2023-12-14T00:38:48;38.03;;;23.70;;
24261;SDS011;12385;51.412;5.540;2023-12-14T00:41:14;42.60;;;24.77;;
24261;SDS011;12385;51.412;5.540;2023-12-14T00:43:39;38.03;;;24.45;;
24261;SDS011;12385;51.412;5.540;2023-12-14T00:46:05;39.95;;;24.75;;
24261;SDS011;12385;51.412;5.540;2023-12-14T00:48:32;41.78;;;25.15;;
24261;SDS011;12385;51.412;5.540;2023-12-14T00:50:57;43.20;;;25.63;;
24261;SDS011;12385;51.412;5.540;2023-12-14T00:53:24;40.55;;;25.90;;
24261;SDS011;12385;51.412;5.540;2023-12-14T00:55:52;34.63;;;23.10;;
24261;SDS011;12385;51.412;5.540;2023-12-14T00:58:18;31.40;;;20.80;;
24261;SDS011;12385;51.412;5.540;2023-12-14T01:00:43;36.63;;;23.60;;
24261;SDS011;12385;51.412;5.540;2023-12-14T01:03:09;37.25;;;23.67;;
24261;SDS011;12385;51.412;5.540;2023-12-14T01:05:34;39.85;;;24.90;;
24261;SDS011;12385;51.412;5.540;2023-12-14T01:08:00;43.63;;;25.88;;
24261;SDS011;12385;51.412;5.540;2023-12-14T01:10:25;43.67;;;26.40;;
24261;SDS011;12385;51.412;5.540;2023-12-14T01:12:52;42.70;;;26.00;;
24261;SDS011;12385;51.412;5.540;2023-12-14T01:15:18;38.15;;;24.33;;
24261;SDS011;12385;51.412;5.540;2023-12-14T01:17:47;39.83;;;25.08;;
24261;SDS011;12385;51.412;5.540;2023-12-14T01:20:14;39.45;;;24.42;;
24261;SDS011;12385;51.412;5.540;2023-12-14T01:22:39;42.85;;;25.63;;
24261;SDS011;12385;51.412;5.540;2023-12-14T01:25:05;47.33;;;27.52;;
24261;SDS011;12385;51.412;5.540;2023-12-14T01:27:31;44.45;;;26.02;;
24261;SDS011;12385;51.412;5.540;2023-12-14T01:29:56;44.00;;;26.52;;
24261;SDS011;12385;51.412;5.540;2023-12-14T01:32:22;45.83;;;26.48;;
24261;SDS011;12385;51.412;5.540;2023-12-14T01:34:48;44.97;;;26.55;;
24261;SDS011;12385;51.412;5.540;2023-12-14T01:37:14;45.92;;;26.80;;
24261;SDS011;12385;51.412;5.540;2023-12-14T01:39:39;44.50;;;26.17;;
24261;SDS011;12385;51.412;5.540;2023-12-14T01:42:05;49.60;;;27.92;;
24261;SDS011;12385;51.412;5.540;2023-12-14T01:44:31;51.13;;;27.80;;
24261;SDS011;12385;51.412;5.540;2023-12-14T01:46:56;64.35;;;31.67;;
24261;SDS011;12385;51.412;5.540;2023-12-14T01:49:22;83.50;;;37.53;;
24261;SDS011;12385;51.412;5.540;2023-12-14T01:51:48;89.93;;;38.30;;
24261;SDS011;12385;51.412;5.540;2023-12-14T01:54:13;95.30;;;40.65;;
24261;SDS011;12385;51.412;5.540;2023-12-14T01:56:40;94.13;;;39.42;;
24261;SDS011;12385;51.412;5.540;2023-12-14T01:59:06;92.85;;;37.90;;
24261;SDS011;12385;51.412;5.540;2023-12-14T02:01:47;86.05;;;36.83;;
24261;SDS011;12385;51.412;5.540;2023-12-14T02:06:49;72.90;;;32.70;;
24261;SDS011;12385;51.412;5.540;2023-12-14T02:09:18;78.47;;;32.90;;
24261;SDS011;12385;51.412;5.540;2023-12-14T02:11:43;81.03;;;33.10;;
24261;SDS011;12385;51.412;5.540;2023-12-14T02:14:09;76.18;;;33.70;;
24261;SDS011;12385;51.412;5.540;2023-12-14T02:16:35;94.50;;;34.28;;
24261;SDS011;12385;51.412;5.540;2023-12-14T02:19:03;71.40;;;31.55;;
24261;SDS011;12385;51.412;5.540;2023-12-14T02:21:29;76.20;;;33.10;;
24261;SDS011;12385;51.412;5.540;2023-12-14T02:23:55;68.10;;;31.05;;
24261;SDS011;12385;51.412;5.540;2023-12-14T02:26:22;76.40;;;33.58;;
24261;SDS011;12385;51.412;5.540;2023-12-14T02:28:48;70.28;;;31.55;;
24261;SDS011;12385;51.412;5.540;2023-12-14T02:31:14;66.53;;;32.13;;
24261;SDS011;12385;51.412;5.540;2023-12-14T02:33:40;61.17;;;30.02;;
24261;SDS011;12385;51.412;5.540;2023-12-14T02:36:05;64.50;;;30.40;;
24261;SDS011;12385;51.412;5.540;2023-12-14T02:38:31;62.35;;;29.48;;
24261;SDS011;12385;51.412;5.540;2023-12-14T02:40:57;62.90;;;30.15;;
24261;SDS011;12385;51.412;5.540;2023-12-14T02:43:22;60.90;;;29.90;;
24261;SDS011;12385;51.412;5.540;2023-12-14T02:45:48;49.70;;;28.48;;
24261;SDS011;12385;51.412;5.540;2023-12-14T02:48:17;51.67;;;27.85;;
24261;SDS011;12385;51.412;5.540;2023-12-14T02:50:42;50.65;;;28.83;;
24261;SDS011;12385;51.412;5.540;2023-12-14T02:53:08;47.30;;;27.80;;
24261;SDS011;12385;51.412;5.540;2023-12-14T02:55:34;50.17;;;27.75;;
24261;SDS011;12385;51.412;5.540;2023-12-14T02:58:00;50.13;;;28.55;;
24261;SDS011;12385;51.412;5.540;2023-12-14T03:00:25;47.90;;;27.13;;
24261;SDS011;12385;51.412;5.540;2023-12-14T03:02:52;48.42;;;26.98;;
24261;SDS011;12385;51.412;5.540;2023-12-14T03:05:18;49.65;;;27.27;;
24261;SDS011;12385;51.412;5.540;2023-12-14T03:07:43;48.05;;;27.40;;
24261;SDS011;12385;51.412;5.540;2023-12-14T03:10:09;44.78;;;26.33;;
24261;SDS011;12385;51.412;5.540;2023-12-14T03:12:35;48.03;;;27.10;;
24261;SDS011;12385;51.412;5.540;2023-12-14T03:15:01;49.63;;;28.63;;
24261;SDS011;12385;51.412;5.540;2023-12-14T03:17:26;55.17;;;30.33;;
24261;SDS011;12385;51.412;5.540;2023-12-14T03:19:52;47.47;;;26.30;;
24261;SDS011;12385;51.412;5.540;2023-12-14T03:22:17;46.35;;;26.15;;
24261;SDS011;12385;51.412;5.540;2023-12-14T03:24:43;49.10;;;26.60;;
24261;SDS011;12385;51.412;5.540;2023-12-14T03:27:08;44.63;;;25.13;;
24261;SDS011;12385;51.412;5.540;2023-12-14T03:29:34;41.50;;;24.48;;
24261;SDS011;12385;51.412;5.540;2023-12-14T03:32:00;40.28;;;23.90;;
24261;SDS011;12385;51.412;5.540;2023-12-14T03:34:26;38.95;;;23.63;;
24261;SDS011;12385;51.412;5.540;2023-12-14T03:36:53;38.85;;;23.35;;
24261;SDS011;12385;51.412;5.540;2023-12-14T03:39:19;45.90;;;24.10;;
24261;SDS011;12385;51.412;5.540;2023-12-14T03:41:48;44.78;;;25.42;;
24261;SDS011;12385;51.412;5.540;2023-12-14T03:44:13;42.03;;;24.77;;
24261;SDS011;12385;51.412;5.540;2023-12-14T03:46:39;44.55;;;25.35;;
24261;SDS011;12385;51.412;5.540;2023-12-14T03:49:05;43.60;;;26.02;;
24261;SDS011;12385;51.412;5.540;2023-12-14T03:51:30;42.47;;;25.55;;
24261;SDS011;12385;51.412;5.540;2023-12-14T03:53:56;41.72;;;25.30;;
24261;SDS011;12385;51.412;5.540;2023-12-14T03:56:24;46.95;;;26.70;;
24261;SDS011;12385;51.412;5.540;2023-12-14T03:58:52;42.50;;;25.48;;
24261;SDS011;12385;51.412;5.540;2023-12-14T04:01:18;43.53;;;26.08;;
24261;SDS011;12385;51.412;5.540;2023-12-14T04:03:47;44.55;;;26.02;;
24261;SDS011;12385;51.412;5.540;2023-12-14T04:06:13;42.40;;;25.52;;
24261;SDS011;12385;51.412;5.540;2023-12-14T04:08:39;41.97;;;25.48;;
24261;SDS011;12385;51.412;5.540;2023-12-14T04:11:06;36.58;;;25.08;;
24261;SDS011;12385;51.412;5.540;2023-12-14T04:13:32;45.38;;;25.85;;
24261;SDS011;12385;51.412;5.540;2023-12-14T04:15:58;40.50;;;25.90;;
24261;SDS011;12385;51.412;5.540;2023-12-14T04:18:24;41.63;;;25.08;;
24261;SDS011;12385;51.412;5.540;2023-12-14T04:20:52;37.67;;;25.10;;
24261;SDS011;12385;51.412;5.540;2023-12-14T04:23:18;41.20;;;24.98;;
24261;SDS011;12385;51.412;5.540;2023-12-14T04:25:44;36.95;;;25.50;;
24261;SDS011;12385;51.412;5.540;2023-12-14T04:28:09;36.85;;;25.67;;
24261;SDS011;12385;51.412;5.540;2023-12-14T04:30:35;38.15;;;25.88;;
24261;SDS011;12385;51.412;5.540;2023-12-14T04:33:00;39.25;;;25.83;;
24261;SDS011;12385;51.412;5.540;2023-12-14T04:35:26;37.53;;;25.83;;
24261;SDS011;12385;51.412;5.540;2023-12-14T04:37:52;39.05;;;25.40;;
24261;SDS011;12385;51.412;5.540;2023-12-14T04:40:17;39.88;;;25.70;;
24261;SDS011;12385;51.412;5.540;2023-12-14T04:42:43;36.40;;;25.92;;
24261;SDS011;12385;51.412;5.540;2023-12-14T04:45:09;36.22;;;24.98;;
24261;SDS011;12385;51.412;5.540;2023-12-14T04:47:35;36.72;;;25.88;;
24261;SDS011;12385;51.412;5.540;2023-12-14T04:50:01;38.15;;;26.25;;
24261;SDS011;12385;51.412;5.540;2023-12-14T04:52:28;41.47;;;26.50;;
24261;SDS011;12385;51.412;5.540;2023-12-14T04:54:53;41.25;;;27.45;;
24261;SDS011;12385;51.412;5.540;2023-12-14T04:57:22;42.65;;;28.17;;
24261;SDS011;12385;51.412;5.540;2023-12-14T04:59:48;41.83;;;26.65;;
24261;SDS011;12385;51.412;5.540;2023-12-14T05:02:13;43.30;;;27.83;;
24261;SDS011;12385;51.412;5.540;2023-12-14T05:04:39;45.13;;;28.85;;
24261;SDS011;12385;51.412;5.540;2023-12-14T05:07:05;45.85;;;27.40;;
24261;SDS011;12385;51.412;5.540;2023-12-14T05:09:30;43.50;;;28.33;;
24261;SDS011;12385;51.412;5.540;2023-12-14T05:11:56;43.55;;;27.02;;
24261;SDS011;12385;51.412;5.540;2023-12-14T05:14:22;43.15;;;27.85;;
24261;SDS011;12385;51.412;5.540;2023-12-14T05:16:48;44.38;;;27.70;;
24261;SDS011;12385;51.412;5.540;2023-12-14T05:19:17;41.33;;;27.13;;
24261;SDS011;12385;51.412;5.540;2023-12-14T05:21:43;41.65;;;26.17;;
24261;SDS011;12385;51.412;5.540;2023-12-14T05:24:09;41.00;;;27.27;;
24261;SDS011;12385;51.412;5.540;2023-12-14T05:26:34;39.85;;;26.83;;
24261;SDS011;12385;51.412;5.540;2023-12-14T05:29:00;36.38;;;25.75;;
24261;SDS011;12385;51.412;5.540;2023-12-14T05:31:26;37.17;;;25.55;;
24261;SDS011;12385;51.412;5.540;2023-12-14T05:33:52;35.60;;;25.42;;
24261;SDS011;12385;51.412;5.540;2023-12-14T05:36:18;35.10;;;24.33;;
24261;SDS011;12385;51.412;5.540;2023-12-14T05:38:44;33.35;;;23.83;;
24261;SDS011;12385;51.412;5.540;2023-12-14T05:41:09;33.53;;;24.75;;
24261;SDS011;12385;51.412;5.540;2023-12-14T05:43:35;32.17;;;23.33;;
24261;SDS011;12385;51.412;5.540;2023-12-14T05:46:02;32.30;;;22.83;;
24261;SDS011;12385;51.412;5.540;2023-12-14T05:48:28;30.33;;;22.95;;
24261;SDS011;12385;51.412;5.540;2023-12-14T05:50:55;32.92;;;22.88;;
24261;SDS011;12385;51.412;5.540;2023-12-14T05:53:26;32.00;;;23.58;;
24261;SDS011;12385;51.412;5.540;2023-12-14T05:55:52;32.33;;;24.13;;
24261;SDS011;12385;51.412;5.540;2023-12-14T05:58:18;31.02;;;24.13;;
24261;SDS011;12385;51.412;5.540;2023-12-14T06:03:15;35.53;;;24.42;;
24261;SDS011;12385;51.412;5.540;2023-12-14T06:05:41;34.92;;;25.33;;
24261;SDS011;12385;51.412;5.540;2023-12-14T06:08:06;32.75;;;24.58;;
24261;SDS011;12385;51.412;5.540;2023-12-14T06:10:32;30.67;;;23.10;;
24261;SDS011;12385;51.412;5.540;2023-12-14T06:12:58;34.63;;;24.23;;
24261;SDS011;12385;51.412;5.540;2023-12-14T06:15:23;34.25;;;23.83;;
24261;SDS011;12385;51.412;5.540;2023-12-14T06:17:53;32.38;;;23.65;;
24261;SDS011;12385;51.412;5.540;2023-12-14T06:20:18;32.95;;;23.70;;
24261;SDS011;12385;51.412;5.540;2023-12-14T06:25:14;34.60;;;24.48;;
24261;SDS011;12385;51.412;5.540;2023-12-14T06:27:40;33.45;;;24.98;;
24261;SDS011;12385;51.412;5.540;2023-12-14T06:30:07;37.72;;;27.17;;
24261;SDS011;12385;51.412;5.540;2023-12-14T06:32:34;37.20;;;26.40;;
24261;SDS011;12385;51.412;5.540;2023-12-14T06:35:00;34.35;;;25.05;;
24261;SDS011;12385;51.412;5.540;2023-12-14T06:37:25;35.88;;;26.42;;
24261;SDS011;12385;51.412;5.540;2023-12-14T06:39:54;37.00;;;27.35;;
24261;SDS011;12385;51.412;5.540;2023-12-14T06:42:23;37.33;;;27.08;;
24261;SDS011;12385;51.412;5.540;2023-12-14T06:44:53;35.80;;;25.75;;
24261;SDS011;12385;51.412;5.540;2023-12-14T06:47:22;39.85;;;27.08;;
24261;SDS011;12385;51.412;5.540;2023-12-14T06:52:19;33.80;;;25.15;;
24261;SDS011;12385;51.412;5.540;2023-12-14T06:54:54;31.67;;;24.48;;
24261;SDS011;12385;51.412;5.540;2023-12-14T06:57:23;35.20;;;25.38;;
24261;SDS011;12385;51.412;5.540;2023-12-14T06:59:52;35.35;;;26.10;;
24261;SDS011;12385;51.412;5.540;2023-12-14T07:02:19;32.55;;;24.55;;
24261;SDS011;12385;51.412;5.540;2023-12-14T07:04:48;33.53;;;25.20;;
24261;SDS011;12385;51.412;5.540;2023-12-14T07:07:14;32.00;;;24.80;;
24261;SDS011;12385;51.412;5.540;2023-12-14T07:09:40;32.72;;;24.92;;
24261;SDS011;12385;51.412;5.540;2023-12-14T07:12:06;34.10;;;25.20;;
24261;SDS011;12385;51.412;5.540;2023-12-14T07:14:33;33.20;;;24.52;;
24261;SDS011;12385;51.412;5.540;2023-12-14T07:16:58;31.98;;;24.10;;
24261;SDS011;12385;51.412;5.540;2023-12-14T07:19:24;35.40;;;25.48;;
24261;SDS011;12385;51.412;5.540;2023-12-14T07:21:52;33.83;;;25.13;;
24261;SDS011;12385;51.412;5.540;2023-12-14T07:24:18;33.53;;;24.58;;
24261;SDS011;12385;51.412;5.540;2023-12-14T07:26:44;34.20;;;25.23;;
24261;SDS011;12385;51.412;5.540;2023-12-14T07:29:10;36.80;;;25.80;;
24261;SDS011;12385;51.412;5.540;2023-12-14T07:31:35;35.03;;;25.65;;
24261;SDS011;12385;51.412;5.540;2023-12-14T07:34:01;35.95;;;26.05;;
24261;SDS011;12385;51.412;5.540;2023-12-14T07:36:27;34.05;;;24.88;;
24261;SDS011;12385;51.412;5.540;2023-12-14T07:38:53;35.85;;;25.45;;
24261;SDS011;12385;51.412;5.540;2023-12-14T07:41:22;39.10;;;26.80;;
24261;SDS011;12385;51.412;5.540;2023-12-14T07:43:52;38.90;;;25.92;;
24261;SDS011;12385;51.412;5.540;2023-12-14T07:46:18;39.75;;;27.10;;
24261;SDS011;12385;51.412;5.540;2023-12-14T07:48:43;39.95;;;26.92;;
24261;SDS011;12385;51.412;5.540;2023-12-14T07:51:09;43.40;;;29.88;;
24261;SDS011;12385;51.412;5.540;2023-12-14T07:53:36;51.25;;;30.35;;
24261;SDS011;12385;51.412;5.540;2023-12-14T07:56:02;55.92;;;31.25;;
24261;SDS011;12385;51.412;5.540;2023-12-14T07:58:28;65.35;;;32.53;;
24261;SDS011;12385;51.412;5.540;2023-12-14T08:00:53;59.25;;;30.88;;
24261;SDS011;12385;51.412;5.540;2023-12-14T08:03:19;57.70;;;31.88;;
24261;SDS011;12385;51.412;5.540;2023-12-14T08:05:48;61.63;;;32.20;;
24261;SDS011;12385;51.412;5.540;2023-12-14T08:08:14;63.20;;;32.17;;
24261;SDS011;12385;51.412;5.540;2023-12-14T08:10:39;61.30;;;33.15;;
24261;SDS011;12385;51.412;5.540;2023-12-14T08:13:05;69.07;;;32.20;;
24261;SDS011;12385;51.412;5.540;2023-12-14T08:15:31;57.70;;;29.90;;
24261;SDS011;12385;51.412;5.540;2023-12-14T08:17:56;53.25;;;29.88;;
24261;SDS011;12385;51.412;5.540;2023-12-14T08:20:23;55.58;;;29.45;;
24261;SDS011;12385;51.412;5.540;2023-12-14T08:22:48;48.85;;;27.80;;
24261;SDS011;12385;51.412;5.540;2023-12-14T08:25:14;54.80;;;28.98;;
24261;SDS011;12385;51.412;5.540;2023-12-14T08:27:40;56.05;;;29.45;;
24261;SDS011;12385;51.412;5.540;2023-12-14T08:30:07;52.95;;;28.08;;
24261;SDS011;12385;51.412;5.540;2023-12-14T08:32:33;52.35;;;29.08;;
24261;SDS011;12385;51.412;5.540;2023-12-14T08:34:59;49.40;;;27.77;;
24261;SDS011;12385;51.412;5.540;2023-12-14T08:37:25;47.42;;;26.85;;
24261;SDS011;12385;51.412;5.540;2023-12-14T08:39:52;59.03;;;29.38;;
24261;SDS011;12385;51.412;5.540;2023-12-14T08:42:18;47.20;;;26.80;;
24261;SDS011;12385;51.412;5.540;2023-12-14T08:44:44;52.28;;;26.65;;
24261;SDS011;12385;51.412;5.540;2023-12-14T08:47:10;52.92;;;27.00;;
24261;SDS011;12385;51.412;5.540;2023-12-14T08:49:35;47.70;;;26.85;;
24261;SDS011;12385;51.412;5.540;2023-12-14T08:52:01;46.10;;;25.17;;
24261;SDS011;12385;51.412;5.540;2023-12-14T08:54:27;44.92;;;24.70;;
24261;SDS011;12385;51.412;5.540;2023-12-14T08:56:52;48.20;;;25.65;;
24261;SDS011;12385;51.412;5.540;2023-12-14T08:59:18;42.55;;;25.20;;
24261;SDS011;12385;51.412;5.540;2023-12-14T09:01:48;40.13;;;21.73;;
24261;SDS011;12385;51.412;5.540;2023-12-14T09:04:14;36.88;;;21.52;;
24261;SDS011;12385;51.412;5.540;2023-12-14T09:06:39;39.65;;;21.85;;
24261;SDS011;12385;51.412;5.540;2023-12-14T09:09:09;33.50;;;21.63;;
24261;SDS011;12385;51.412;5.540;2023-12-14T09:11:35;38.63;;;22.88;;
24261;SDS011;12385;51.412;5.540;2023-12-14T09:14:02;35.65;;;21.85;;
24261;SDS011;12385;51.412;5.540;2023-12-14T09:16:27;35.30;;;22.33;;
24261;SDS011;12385;51.412;5.540;2023-12-14T09:18:53;36.30;;;21.73;;
24261;SDS011;12385;51.412;5.540;2023-12-14T09:21:19;30.92;;;21.67;;
24261;SDS011;12385;51.412;5.540;2023-12-14T09:23:48;35.33;;;21.15;;
24261;SDS011;12385;51.412;5.540;2023-12-14T09:26:14;31.58;;;20.08;;
24261;SDS011;12385;51.412;5.540;2023-12-14T09:28:40;33.95;;;21.15;;
24261;SDS011;12385;51.412;5.540;2023-12-14T09:31:05;31.80;;;20.48;;
24261;SDS011;12385;51.412;5.540;2023-12-14T09:33:31;31.13;;;20.25;;
24261;SDS011;12385;51.412;5.540;2023-12-14T09:35:59;27.55;;;19.83;;
24261;SDS011;12385;51.412;5.540;2023-12-14T09:38:25;28.63;;;20.33;;
24261;SDS011;12385;51.412;5.540;2023-12-14T09:40:52;33.22;;;20.67;;
24261;SDS011;12385;51.412;5.540;2023-12-14T09:43:18;30.20;;;20.33;;
24261;SDS011;12385;51.412;5.540;2023-12-14T09:45:46;26.83;;;18.55;;
24261;SDS011;12385;51.412;5.540;2023-12-14T09:48:12;24.67;;;17.77;;
24261;SDS011;12385;51.412;5.540;2023-12-14T09:50:40;23.40;;;17.70;;
24261;SDS011;12385;51.412;5.540;2023-12-14T09:53:06;26.40;;;17.63;;
24261;SDS011;12385;51.412;5.540;2023-12-14T09:55:32;31.38;;;18.10;;
24261;SDS011;12385;51.412;5.540;2023-12-14T09:57:59;30.98;;;19.67;;
24261;SDS011;12385;51.412;5.540;2023-12-14T10:00:34;27.02;;;19.83;;
24261;SDS011;12385;51.412;5.540;2023-12-14T10:06:00;28.38;;;20.45;;
24261;SDS011;12385;51.412;5.540;2023-12-14T10:08:26;30.80;;;20.55;;
24261;SDS011;12385;51.412;5.540;2023-12-14T10:10:53;25.05;;;18.90;;
24261;SDS011;12385;51.412;5.540;2023-12-14T10:13:35;25.90;;;19.35;;
24261;SDS011;12385;51.412;5.540;2023-12-14T10:16:05;23.20;;;17.48;;
24261;SDS011;12385;51.412;5.540;2023-12-14T10:18:31;23.35;;;17.55;;
24261;SDS011;12385;51.412;5.540;2023-12-14T10:20:59;22.00;;;17.42;;
24261;SDS011;12385;51.412;5.540;2023-12-14T10:23:25;22.55;;;17.40;;
24261;SDS011;12385;51.412;5.540;2023-12-14T10:25:52;22.45;;;16.65;;
24261;SDS011;12385;51.412;5.540;2023-12-14T10:28:18;24.27;;;16.85;;
24261;SDS011;12385;51.412;5.540;2023-12-14T10:30:44;23.50;;;17.73;;
24261;SDS011;12385;51.412;5.540;2023-12-14T10:33:10;22.98;;;16.83;;
24261;SDS011;12385;51.412;5.540;2023-12-14T10:35:35;21.58;;;16.67;;
24261;SDS011;12385;51.412;5.540;2023-12-14T10:38:02;21.55;;;15.60;;
24261;SDS011;12385;51.412;5.540;2023-12-14T10:40:34;22.85;;;15.93;;
24261;SDS011;12385;51.412;5.540;2023-12-14T10:43:05;22.30;;;17.02;;
24261;SDS011;12385;51.412;5.540;2023-12-14T10:45:32;19.48;;;15.55;;
24261;SDS011;12385;51.412;5.540;2023-12-14T10:47:59;21.77;;;16.70;;
24261;SDS011;12385;51.412;5.540;2023-12-14T10:50:28;23.42;;;15.82;;
24261;SDS011;12385;51.412;5.540;2023-12-14T10:52:55;18.90;;;15.00;;
24261;SDS011;12385;51.412;5.540;2023-12-14T10:55:31;21.20;;;15.93;;
24261;SDS011;12385;51.412;5.540;2023-12-14T10:58:02;21.17;;;15.98;;
24261;SDS011;12385;51.412;5.540;2023-12-14T11:00:29;21.60;;;15.98;;
24261;SDS011;12385;51.412;5.540;2023-12-14T11:02:56;21.60;;;16.30;;
24261;SDS011;12385;51.412;5.540;2023-12-14T11:05:26;19.17;;;15.18;;
24261;SDS011;12385;51.412;5.540;2023-12-14T11:07:59;18.92;;;15.30;;
24261;SDS011;12385;51.412;5.540;2023-12-14T11:10:37;20.63;;;15.75;;
24261;SDS011;12385;51.412;5.540;2023-12-14T11:13:09;19.05;;;14.45;;
24261;SDS011;12385;51.412;5.540;2023-12-14T11:15:38;22.88;;;14.50;;
24261;SDS011;12385;51.412;5.540;2023-12-14T11:23:11;18.42;;;13.38;;
24261;SDS011;12385;51.412;5.540;2023-12-14T11:25:39;20.30;;;15.00;;
24261;SDS011;12385;51.412;5.540;2023-12-14T11:28:08;21.55;;;14.88;;
24261;SDS011;12385;51.412;5.540;2023-12-14T11:30:35;21.25;;;15.48;;
24261;SDS011;12385;51.412;5.540;2023-12-14T11:33:02;21.52;;;15.02;;
24261;SDS011;12385;51.412;5.540;2023-12-14T11:35:28;22.10;;;15.27;;
24261;SDS011;12385;51.412;5.540;2023-12-14T11:37:54;21.02;;;15.00;;
24261;SDS011;12385;51.412;5.540;2023-12-14T11:40:23;19.48;;;13.75;;
24261;SDS011;12385;51.412;5.540;2023-12-14T11:43:00;16.88;;;12.82;;
24261;SDS011;12385;51.412;5.540;2023-12-14T11:45:27;18.38;;;12.82;;
24261;SDS011;12385;51.412;5.540;2023-12-14T11:47:53;17.73;;;12.63;;
24261;SDS011;12385;51.412;5.540;2023-12-14T11:50:19;13.05;;;10.13;;
24261;SDS011;12385;51.412;5.540;2023-12-14T11:52:48;11.82;;;9.60;;
24261;SDS011;12385;51.412;5.540;2023-12-14T11:55:17;11.38;;;9.02;;
24261;SDS011;12385;51.412;5.540;2023-12-14T11:57:46;13.38;;;9.73;;
24261;SDS011;12385;51.412;5.540;2023-12-14T12:00:13;13.95;;;9.93;;
24261;SDS011;12385;51.412;5.540;2023-12-14T12:02:39;13.32;;;10.18;;
24261;SDS011;12385;51.412;5.540;2023-12-14T12:05:08;13.23;;;10.40;;
24261;SDS011;12385;51.412;5.540;2023-12-14T12:07:39;14.27;;;10.48;;
24261;SDS011;12385;51.412;5.540;2023-12-14T12:10:09;14.15;;;10.65;;
24261;SDS011;12385;51.412;5.540;2023-12-14T12:12:35;15.57;;;11.70;;
24261;SDS011;12385;51.412;5.540;2023-12-14T12:15:01;14.20;;;10.73;;
24261;SDS011;12385;51.412;5.540;2023-12-14T12:17:27;15.63;;;10.98;;
24261;SDS011;12385;51.412;5.540;2023-12-14T12:19:53;16.65;;;10.32;;
24261;SDS011;12385;51.412;5.540;2023-12-14T12:22:18;14.75;;;10.18;;
24261;SDS011;12385;51.412;5.540;2023-12-14T12:24:44;13.25;;;10.05;;
24261;SDS011;12385;51.412;5.540;2023-12-14T12:27:10;13.77;;;9.88;;
24261;SDS011;12385;51.412;5.540;2023-12-14T12:29:36;12.60;;;10.20;;
24261;SDS011;12385;51.412;5.540;2023-12-14T12:32:01;12.13;;;10.50;;
24261;SDS011;12385;51.412;5.540;2023-12-14T12:34:27;15.15;;;9.98;;
24261;SDS011;12385;51.412;5.540;2023-12-14T12:36:54;13.07;;;10.52;;
24261;SDS011;12385;51.412;5.540;2023-12-14T12:39:23;12.75;;;10.57;;
24261;SDS011;12385;51.412;5.540;2023-12-14T12:41:49;13.90;;;10.57;;
24261;SDS011;12385;51.412;5.540;2023-12-14T12:44:18;12.57;;;10.07;;
24261;SDS011;12385;51.412;5.540;2023-12-14T12:46:43;13.82;;;10.02;;
24261;SDS011;12385;51.412;5.540;2023-12-14T12:49:09;13.27;;;10.15;;
24261;SDS011;12385;51.412;5.540;2023-12-14T12:51:34;12.73;;;10.40;;
24261;SDS011;12385;51.412;5.540;2023-12-14T12:54:00;15.20;;;11.30;;
24261;SDS011;12385;51.412;5.540;2023-12-14T12:56:27;13.65;;;10.85;;
24261;SDS011;12385;51.412;5.540;2023-12-14T12:58:53;13.48;;;11.05;;
24261;SDS011;12385;51.412;5.540;2023-12-14T13:01:22;14.73;;;11.85;;
24261;SDS011;12385;51.412;5.540;2023-12-14T13:03:53;15.77;;;11.63;;
24261;SDS011;12385;51.412;5.540;2023-12-14T13:06:21;14.50;;;11.57;;
24261;SDS011;12385;51.412;5.540;2023-12-14T13:08:52;15.35;;;12.05;;
24261;SDS011;12385;51.412;5.540;2023-12-14T13:11:22;18.05;;;12.85;;
24261;SDS011;12385;51.412;5.540;2023-12-14T13:13:47;16.00;;;12.45;;
24261;SDS011;12385;51.412;5.540;2023-12-14T13:16:13;16.23;;;12.38;;
24261;SDS011;12385;51.412;5.540;2023-12-14T13:18:39;15.38;;;11.88;;
24261;SDS011;12385;51.412;5.540;2023-12-14T13:21:05;14.70;;;11.40;;
24261;SDS011;12385;51.412;5.540;2023-12-14T13:23:31;16.75;;;11.55;;
24261;SDS011;12385;51.412;5.540;2023-12-14T13:25:56;14.32;;;11.48;;
24261;SDS011;12385;51.412;5.540;2023-12-14T13:28:22;14.00;;;11.77;;
24261;SDS011;12385;51.412;5.540;2023-12-14T13:30:48;16.35;;;13.05;;
24261;SDS011;12385;51.412;5.540;2023-12-14T13:33:17;17.20;;;12.35;;
24261;SDS011;12385;51.412;5.540;2023-12-14T13:35:42;16.13;;;12.00;;
24261;SDS011;12385;51.412;5.540;2023-12-14T13:38:08;14.23;;;11.85;;
24261;SDS011;12385;51.412;5.540;2023-12-14T13:40:33;14.77;;;11.13;;
24261;SDS011;12385;51.412;5.540;2023-12-14T13:42:59;17.63;;;11.80;;
24261;SDS011;12385;51.412;5.540;2023-12-14T13:45:28;15.55;;;11.27;;
24261;SDS011;12385;51.412;5.540;2023-12-14T13:47:55;15.95;;;12.50;;
24261;SDS011;12385;51.412;5.540;2023-12-14T13:50:23;16.92;;;12.77;;
24261;SDS011;12385;51.412;5.540;2023-12-14T13:52:53;14.07;;;12.05;;
24261;SDS011;12385;51.412;5.540;2023-12-14T13:55:19;16.55;;;11.82;;
24261;SDS011;12385;51.412;5.540;2023-12-14T13:57:49;17.05;;;12.30;;
24261;SDS011;12385;51.412;5.540;2023-12-14T14:00:23;16.10;;;12.45;;
24261;SDS011;12385;51.412;5.540;2023-12-14T14:02:52;17.08;;;12.95;;
24261;SDS011;12385;51.412;5.540;2023-12-14T14:05:19;16.05;;;13.43;;
24261;SDS011;12385;51.412;5.540;2023-12-14T14:07:48;15.60;;;12.85;;
24261;SDS011;12385;51.412;5.540;2023-12-14T14:10:14;17.45;;;13.23;;
24261;SDS011;12385;51.412;5.540;2023-12-14T14:12:40;18.20;;;13.93;;
24261;SDS011;12385;51.412;5.540;2023-12-14T14:15:05;19.48;;;13.77;;
24261;SDS011;12385;51.412;5.540;2023-12-14T14:17:31;16.88;;;13.85;;
24261;SDS011;12385;51.412;5.540;2023-12-14T14:19:57;17.85;;;14.27;;
24261;SDS011;12385;51.412;5.540;2023-12-14T14:22:23;17.05;;;13.98;;
24261;SDS011;12385;51.412;5.540;2023-12-14T14:24:52;20.05;;;14.63;;
24261;SDS011;12385;51.412;5.540;2023-12-14T14:27:18;19.85;;;14.55;;
24261;SDS011;12385;51.412;5.540;2023-12-14T14:29:44;21.25;;;14.93;;
24261;SDS011;12385;51.412;5.540;2023-12-14T14:32:10;19.15;;;13.95;;
24261;SDS011;12385;51.412;5.540;2023-12-14T14:34:35;20.45;;;14.57;;
24261;SDS011;12385;51.412;5.540;2023-12-14T14:37:01;19.88;;;14.43;;
24261;SDS011;12385;51.412;5.540;2023-12-14T14:39:26;19.88;;;14.43;;